createdAt,value
2016-07-06T00:06:40.441Z,14.47
2016-07-06T00:07:40.384Z,14.44
2016-07-06T00:08:40.520Z,14.5
2016-07-06T00:09:40.355Z,14.43
2016-07-06T00:10:40.390Z,14.33
2016-07-06T00:11:40.341Z,14.25
2016-07-06T00:12:40.364Z,14.11
2016-07-06T00:13:40.369Z,14.23
2016-07-06T00:14:40.380Z,14.18
2016-07-06T00:15:40.363Z,14.14
2016-07-06T00:16:40.348Z,14.36
2016-07-06T00:17:40.311Z,14.32
2016-07-06T00:18:41.347Z,14.3
2016-07-06T00:19:40.345Z,14.22
2016-07-06T00:20:40.366Z,14.22
2016-07-06T00:21:42.772Z,14.15
2016-07-06T00:22:40.360Z,14.08
2016-07-06T00:23:40.328Z,14.1
2016-07-06T00:24:40.303Z,14.07
2016-07-06T00:25:40.512Z,13.96
2016-07-06T00:26:40.463Z,13.97
2016-07-06T00:27:40.510Z,13.9
2016-07-06T00:28:40.692Z,14.05
2016-07-06T00:29:40.353Z,13.97
2016-07-06T00:30:40.859Z,14.07
2016-07-06T00:31:40.329Z,14
2016-07-06T00:32:40.384Z,13.95
2016-07-06T00:42:40.892Z,14.1
2016-07-06T00:42:57.529Z,14.04
2016-07-06T00:43:57.505Z,14.03
2016-07-06T00:44:57.512Z,13.96
2016-07-06T00:45:57.549Z,13.9
2016-07-06T00:46:58.477Z,13.92
2016-07-06T00:47:57.543Z,13.83
2016-07-06T00:49:01.793Z,13.86
2016-07-06T00:49:57.603Z,13.78
2016-07-06T00:50:57.610Z,13.78
2016-07-06T00:51:57.531Z,13.86
2016-07-06T00:52:57.546Z,13.92
2016-07-06T00:53:57.507Z,13.81
2016-07-06T00:54:57.500Z,13.7
2016-07-06T00:55:57.593Z,13.72
2016-07-06T00:56:57.541Z,13.71
2016-07-06T00:57:57.540Z,13.81
2016-07-06T00:58:57.561Z,13.96
2016-07-06T00:59:57.500Z,13.85
2016-07-06T01:00:57.541Z,13.79
2016-07-06T01:01:57.548Z,13.77
2016-07-06T01:02:57.770Z,13.72
2016-07-06T01:03:57.579Z,13.77
2016-07-06T01:04:57.535Z,13.83
2016-07-06T01:05:57.680Z,13.81
2016-07-06T01:06:57.506Z,13.89
2016-07-06T01:07:57.775Z,13.74
2016-07-06T01:08:57.657Z,13.74
2016-07-06T01:09:59.142Z,13.79
2016-07-06T01:10:57.893Z,13.78
2016-07-06T01:11:57.590Z,13.72
2016-07-06T01:12:57.552Z,13.74
2016-07-06T01:13:57.508Z,13.81
2016-07-06T01:14:57.569Z,13.87
2016-07-06T01:15:57.662Z,13.92
2016-07-06T01:17:02.042Z,13.77
2016-07-06T01:17:58.485Z,13.85
2016-07-06T01:18:57.528Z,13.9
2016-07-06T01:19:57.544Z,13.77
2016-07-06T01:20:57.560Z,13.85
2016-07-06T01:21:57.503Z,13.89
2016-07-06T01:22:57.549Z,14
2016-07-06T01:23:57.528Z,13.96
2016-07-06T01:24:57.603Z,13.95
2016-07-06T01:25:57.541Z,13.89
2016-07-06T01:26:58.203Z,13.92
2016-07-06T01:27:57.593Z,13.86
2016-07-06T01:28:57.568Z,13.79
2016-07-06T01:29:57.543Z,13.72
2016-07-06T01:30:57.525Z,13.75
2016-07-06T01:31:57.551Z,13.7
2016-07-06T01:32:57.535Z,13.86
2016-07-06T01:33:57.507Z,13.74
2016-07-06T01:34:57.531Z,13.81
2016-07-06T01:35:57.578Z,13.75
2016-07-06T01:36:57.560Z,13.65
2016-07-06T01:37:57.640Z,13.71
2016-07-06T01:38:57.522Z,13.72
2016-07-06T01:39:57.538Z,13.74
2016-07-06T01:40:57.595Z,13.77
2016-07-06T01:41:57.547Z,13.67
2016-07-06T01:54:14.761Z,13.67
2016-07-06T01:55:14.707Z,13.67
2016-07-06T01:56:14.632Z,13.74
2016-07-06T01:57:14.676Z,13.67
2016-07-06T01:58:14.669Z,13.74
2016-07-06T01:59:14.695Z,13.78
2016-07-06T02:00:14.722Z,13.72
2016-07-06T02:01:14.731Z,13.6
2016-07-06T02:02:14.674Z,13.57
2016-07-06T02:03:14.700Z,13.52
2016-07-06T02:04:14.684Z,13.53
2016-07-06T02:05:14.669Z,13.52
2016-07-06T02:06:14.716Z,13.54
2016-07-06T02:07:14.707Z,13.47
2016-07-06T02:08:14.692Z,13.54
2016-07-06T02:09:14.675Z,13.6
2016-07-06T02:10:14.686Z,13.71
2016-07-06T02:11:14.676Z,13.6
2016-07-06T02:12:14.714Z,13.63
2016-07-06T02:13:14.665Z,13.72
2016-07-06T02:14:14.674Z,13.68
2016-07-06T02:15:14.688Z,13.65
2016-07-06T02:16:14.706Z,13.65
2016-07-06T02:17:14.685Z,13.54
2016-07-06T02:18:14.741Z,13.53
2016-07-06T02:19:14.735Z,13.59
2016-07-06T02:20:14.728Z,13.54
2016-07-06T02:21:14.706Z,13.59
2016-07-06T02:22:14.703Z,13.68
2016-07-06T02:23:14.681Z,13.67
2016-07-06T02:24:14.717Z,13.46
2016-07-06T02:25:14.697Z,13.47
2016-07-06T02:26:14.746Z,13.5
2016-07-06T02:27:14.682Z,13.47
2016-07-06T02:28:16.653Z,13.59
2016-07-06T02:29:14.705Z,13.53
2016-07-06T02:30:14.710Z,13.52
2016-07-06T02:31:14.701Z,13.53
2016-07-06T02:32:14.894Z,13.57
2016-07-06T02:33:14.698Z,13.71
2016-07-06T02:34:14.719Z,13.74
2016-07-06T02:35:14.691Z,13.71
2016-07-06T02:36:14.707Z,13.72
2016-07-06T02:37:14.719Z,13.75
2016-07-06T02:38:14.883Z,13.72
2016-07-06T02:39:14.734Z,13.62
2016-07-06T02:40:14.709Z,13.71
2016-07-06T02:41:14.715Z,13.63
2016-07-06T02:42:14.870Z,13.67
2016-07-06T02:43:14.767Z,13.6
2016-07-06T02:44:14.766Z,13.67
2016-07-06T02:45:15.707Z,13.72
2016-07-06T02:46:14.686Z,13.67
2016-07-06T02:47:14.707Z,13.74
2016-07-06T02:48:14.694Z,13.68
2016-07-06T02:49:14.688Z,13.71
2016-07-06T02:50:21.647Z,13.75
2016-07-06T02:51:14.891Z,13.79
2016-07-06T02:52:14.695Z,13.72
2016-07-06T02:53:14.647Z,13.72
2016-07-06T02:54:14.687Z,13.68
2016-07-06T02:55:14.716Z,13.72
2016-07-06T02:56:14.696Z,13.7
2016-07-06T02:57:14.701Z,13.71
2016-07-06T02:58:14.714Z,13.87
2016-07-06T02:59:14.714Z,13.7
2016-07-06T03:00:14.689Z,13.65
2016-07-06T03:01:15.160Z,13.54
2016-07-06T03:02:14.693Z,13.42
2016-07-06T03:03:14.723Z,13.44
2016-07-06T03:04:14.680Z,13.37
2016-07-06T03:05:14.727Z,13.5
2016-07-06T03:06:14.719Z,13.44
2016-07-06T03:07:14.710Z,13.62
2016-07-06T03:08:14.712Z,13.59
2016-07-06T03:09:14.729Z,13.67
2016-07-06T03:10:15.661Z,13.59
2016-07-06T03:11:14.758Z,13.44
2016-07-06T03:12:14.729Z,13.33
2016-07-06T03:13:15.545Z,13.39
2016-07-06T03:14:14.745Z,13.38
2016-07-06T03:15:14.729Z,13.5
2016-07-06T03:16:14.996Z,13.46
2016-07-06T03:17:14.732Z,13.25
2016-07-06T03:18:14.691Z,13.38
2016-07-06T03:19:14.718Z,13.3
2016-07-06T03:20:14.704Z,13.38
2016-07-06T03:21:15.571Z,13.25
2016-07-06T03:22:14.760Z,13.25
2016-07-06T03:23:14.741Z,13.31
2016-07-06T03:24:14.714Z,13.39
2016-07-06T03:25:14.693Z,13.33
2016-07-06T03:26:14.719Z,13.31
2016-07-06T03:27:14.680Z,13.25
2016-07-06T03:28:21.242Z,13.25
2016-07-06T03:29:14.712Z,13.3
2016-07-06T03:30:14.731Z,13.27
2016-07-06T03:31:14.707Z,13.37
2016-07-06T03:32:14.831Z,13.28
2016-07-06T03:33:14.721Z,13.31
2016-07-06T03:34:14.771Z,13.25
2016-07-06T03:35:14.750Z,13.28
2016-07-06T03:36:14.714Z,13.35
2016-07-06T03:37:15.718Z,13.44
2016-07-06T03:38:14.764Z,13.44
2016-07-06T03:39:14.708Z,13.53
2016-07-06T03:40:14.724Z,13.49
2016-07-06T03:41:14.731Z,13.37
2016-07-06T03:42:14.689Z,13.31
2016-07-06T03:43:14.705Z,13.27
2016-07-06T03:44:14.778Z,13.28
2016-07-06T03:45:14.710Z,13.16
2016-07-06T03:46:14.744Z,13.25
2016-07-06T03:47:14.749Z,13.18
2016-07-06T03:48:14.744Z,13.2
2016-07-06T03:49:14.768Z,13.19
2016-07-06T03:50:14.695Z,13.27
2016-07-06T03:51:15.052Z,13.2
2016-07-06T03:52:14.713Z,13.2
2016-07-06T03:53:14.751Z,13.11
2016-07-06T03:54:28.363Z,13.16
2016-07-06T03:55:15.743Z,13.15
2016-07-06T03:56:14.773Z,13.25
2016-07-06T03:57:14.721Z,13.19
2016-07-06T03:58:14.713Z,13.3
2016-07-06T03:59:14.741Z,13.33
2016-07-06T04:00:14.733Z,13.3
2016-07-06T04:01:14.748Z,13.39
2016-07-06T04:02:14.749Z,13.44
2016-07-06T04:03:14.695Z,13.47
2016-07-06T04:04:14.730Z,13.42
2016-07-06T04:05:14.755Z,13.65
2016-07-06T04:06:15.576Z,13.57
2016-07-06T04:07:14.712Z,13.57
2016-07-06T04:08:14.716Z,13.59
2016-07-06T04:09:14.739Z,13.56
2016-07-06T04:10:14.755Z,13.49
2016-07-06T04:11:14.725Z,13.6
2016-07-06T04:12:14.756Z,13.59
2016-07-06T04:13:14.756Z,13.63
2016-07-06T04:14:14.723Z,13.62
2016-07-06T04:15:14.787Z,13.67
2016-07-06T04:16:14.760Z,13.7
2016-07-06T04:17:14.717Z,13.75
2016-07-06T04:18:14.698Z,13.67
2016-07-06T04:19:14.723Z,13.67
2016-07-06T04:20:14.737Z,13.67
2016-07-06T04:21:15.751Z,13.71
2016-07-06T04:22:14.779Z,13.71
2016-07-06T04:23:14.837Z,13.72
2016-07-06T04:24:14.780Z,13.62
2016-07-06T04:25:14.754Z,13.7
2016-07-06T04:26:14.739Z,13.59
2016-07-06T04:27:14.719Z,13.68
2016-07-06T04:28:14.730Z,13.62
2016-07-06T04:29:14.748Z,13.65
2016-07-06T04:30:14.765Z,13.71
2016-07-06T04:31:14.756Z,13.78
2016-07-06T04:32:14.814Z,13.79
2016-07-06T04:33:14.753Z,13.75
2016-07-06T04:34:14.799Z,13.86
2016-07-06T04:35:14.749Z,14.03
2016-07-06T04:36:14.762Z,14.44
2016-07-06T04:37:14.795Z,14.86
2016-07-06T04:38:14.807Z,15.37
2016-07-06T04:39:14.766Z,15.91
2016-07-06T04:40:14.840Z,16.47
2016-07-06T04:41:14.832Z,16.89
2016-07-06T04:42:14.825Z,17.24
2016-07-06T04:43:14.791Z,17.67
2016-07-06T04:44:14.784Z,17.79
2016-07-06T04:45:14.776Z,18.03
2016-07-06T04:46:14.764Z,18.22
2016-07-06T04:47:14.789Z,18.37
2016-07-06T04:48:14.768Z,18.44
2016-07-06T04:49:15.136Z,17.74
2016-07-06T04:50:14.781Z,17.22
2016-07-06T04:51:14.710Z,16.76
2016-07-06T04:52:14.807Z,16.38
2016-07-06T04:53:14.844Z,15.95
2016-07-06T04:54:14.908Z,15.79
2016-07-06T04:55:14.804Z,16.13
2016-07-06T04:56:14.738Z,16.5
2016-07-06T04:57:14.770Z,16.71
2016-07-06T04:58:14.772Z,16.96
2016-07-06T04:59:14.908Z,17.41
2016-07-06T05:00:14.420Z,17.79
2016-07-06T05:01:14.796Z,18.04
2016-07-06T05:02:14.849Z,18.28
2016-07-06T05:03:15.627Z,18.62
2016-07-06T05:04:14.847Z,18.83
2016-07-06T05:05:14.902Z,18.92
2016-07-06T05:06:14.766Z,18.95
2016-07-06T05:07:15.876Z,18.53
2016-07-06T05:08:14.883Z,18.37
2016-07-06T05:09:14.875Z,18.08
2016-07-06T05:10:14.749Z,17.65
2016-07-06T05:11:14.726Z,17.92
2016-07-06T05:12:14.766Z,18.1
2016-07-06T05:13:38.101Z,18.22
2016-07-06T05:14:17.098Z,18.35
2016-07-06T05:15:14.756Z,18.18
2016-07-06T05:16:14.764Z,18.55
2016-07-06T05:17:14.930Z,18.45
2016-07-06T05:18:14.819Z,18.47
2016-07-06T05:19:14.768Z,18.43
2016-07-06T05:20:14.742Z,18.34
2016-07-06T05:21:16.162Z,18.05
2016-07-06T05:22:14.776Z,18.07
2016-07-06T05:23:14.727Z,18.08
2016-07-06T05:24:14.818Z,17.92
2016-07-06T05:25:14.904Z,17.68
2016-07-06T05:26:14.877Z,17.36
2016-07-06T05:27:14.896Z,17.52
2016-07-06T05:28:14.785Z,17.92
2016-07-06T05:29:15.703Z,17.79
2016-07-06T05:30:14.818Z,17.44
2016-07-06T05:31:16.574Z,17.14
2016-07-06T05:32:14.879Z,16.74
2016-07-06T05:33:15.666Z,17.15
2016-07-06T05:34:14.911Z,17.7
2016-07-06T05:46:31.683Z,18.38
2016-07-06T05:47:31.841Z,18.63
2016-07-06T05:48:31.672Z,18.86
2016-07-06T05:49:31.693Z,18.9
2016-07-06T05:50:31.715Z,18.86
2016-07-06T05:51:32.494Z,19.22
2016-07-06T05:52:36.229Z,19.71
2016-07-06T05:53:31.772Z,19.51
2016-07-06T05:54:31.708Z,19.88
2016-07-06T05:55:31.717Z,20.19
2016-07-06T05:56:32.693Z,20.13
2016-07-06T05:57:31.715Z,19.85
2016-07-06T05:58:31.722Z,19.4
2016-07-06T05:59:31.716Z,19.3
2016-07-06T06:00:35.083Z,18.78
2016-07-06T06:01:31.706Z,18.49
2016-07-06T06:02:31.714Z,18.22
2016-07-06T06:03:31.816Z,17.9
2016-07-06T06:04:36.148Z,17.67
2016-07-06T06:05:31.978Z,17.42
2016-07-06T06:06:31.709Z,17.31
2016-07-06T06:07:31.745Z,17.15
2016-07-06T06:08:43.836Z,17.02
2016-07-06T06:09:31.821Z,16.94
2016-07-06T06:10:31.713Z,16.78
2016-07-06T06:11:31.783Z,16.72
2016-07-06T06:12:31.705Z,16.68
2016-07-06T06:13:31.729Z,16.68
2016-07-06T06:14:31.682Z,16.78
2016-07-06T06:15:31.931Z,16.74
2016-07-06T06:16:36.256Z,16.71
2016-07-06T06:17:31.688Z,16.69
2016-07-06T06:18:31.716Z,16.64
2016-07-06T06:19:31.820Z,16.47
2016-07-06T06:20:31.717Z,16.56
2016-07-06T06:21:34.733Z,16.42
2016-07-06T06:22:41.758Z,16.53
2016-07-06T06:23:31.715Z,16.61
2016-07-06T06:24:31.718Z,16.66
2016-07-06T06:25:38.090Z,16.87
2016-07-06T06:26:33.458Z,16.78
2016-07-06T06:27:32.017Z,16.76
2016-07-06T06:28:31.702Z,16.81
2016-07-06T06:29:31.761Z,16.91
2016-07-06T06:30:37.684Z,16.74
2016-07-06T06:32:31.790Z,16.87
2016-07-06T06:33:35.549Z,16.9
2016-07-06T06:34:31.715Z,16.83
2016-07-06T06:35:32.198Z,16.71
2016-07-06T06:36:31.717Z,16.79
2016-07-06T06:37:31.744Z,16.79
2016-07-06T06:38:31.770Z,16.84
2016-07-06T06:39:31.762Z,16.97
2016-07-06T06:40:32.295Z,16.84
2016-07-06T06:41:32.891Z,16.71
2016-07-06T06:42:41.930Z,16.78
2016-07-06T06:43:34.147Z,16.75
2016-07-06T06:44:31.829Z,16.81
2016-07-06T06:45:31.749Z,16.84
2016-07-06T06:46:31.724Z,16.84
2016-07-06T06:47:31.748Z,16.83
2016-07-06T06:48:31.742Z,16.97
2016-07-06T06:49:32.096Z,17.01
2016-07-06T06:50:32.003Z,17.11
2016-07-06T06:51:31.742Z,17.08
2016-07-06T06:52:32.215Z,17.09
2016-07-06T06:53:31.828Z,17.19
2016-07-06T06:54:31.796Z,17.22
2016-07-06T07:06:49.249Z,17.29
2016-07-06T07:07:49.210Z,17.29
2016-07-06T07:08:50.350Z,17.15
2016-07-06T07:09:49.297Z,17.33
2016-07-06T07:10:59.153Z,17.34
2016-07-06T07:11:49.682Z,17.24
2016-07-06T07:12:49.442Z,17.33
2016-07-06T07:13:49.301Z,17.29
2016-07-06T07:14:51.036Z,17.38
2016-07-06T07:15:49.258Z,17.34
2016-07-06T07:16:49.215Z,17.64
2016-07-06T07:17:49.675Z,17.68
2016-07-06T07:18:54.413Z,17.72
2016-07-06T07:19:49.193Z,17.67
2016-07-06T07:20:54.013Z,17.72
2016-07-06T07:21:49.400Z,17.78
2016-07-06T07:22:49.244Z,17.82
2016-07-06T07:23:49.238Z,17.65
2016-07-06T07:24:49.196Z,17.6
2016-07-06T07:25:49.355Z,17.68
2016-07-06T07:26:49.229Z,17.67
2016-07-06T07:27:49.532Z,17.52
2016-07-06T07:28:49.212Z,17.51
2016-07-06T07:29:50.610Z,17.54
2016-07-06T07:30:49.366Z,17.41
2016-07-06T07:31:49.173Z,17.34
2016-07-06T07:32:49.407Z,17.34
2016-07-06T07:33:49.240Z,17.24
2016-07-06T07:34:49.194Z,17.29
2016-07-06T07:35:49.203Z,17.36
2016-07-06T07:36:54.598Z,17.48
2016-07-06T07:37:50.080Z,17.56
2016-07-06T07:38:54.026Z,17.68
2016-07-06T07:39:49.220Z,17.83
2016-07-06T07:40:49.514Z,17.97
2016-07-06T07:41:49.222Z,18.07
2016-07-06T07:42:49.228Z,18.29
2016-07-06T07:43:49.141Z,18.29
2016-07-06T07:44:49.286Z,18.34
2016-07-06T07:45:49.376Z,18.5
2016-07-06T07:46:50.716Z,18.5
2016-07-06T07:47:51.775Z,18.5
2016-07-06T07:48:49.792Z,18.71
2016-07-06T07:49:49.364Z,19.33
2016-07-06T07:50:49.963Z,19.99
2016-07-06T07:51:53.808Z,20.87
2016-07-06T07:52:49.939Z,21.87
2016-07-06T07:53:50.968Z,22.81
2016-07-06T07:54:49.236Z,22.83
2016-07-06T07:55:49.250Z,23.21
2016-07-06T07:56:50.522Z,23.84
2016-07-06T07:57:49.210Z,23.81
2016-07-06T07:59:39.266Z,22.98
2016-07-06T07:59:58.736Z,22.88
2016-07-06T08:00:55.994Z,23.1
2016-07-06T08:01:58.812Z,23.2
2016-07-06T08:02:57.590Z,23.31
2016-07-06T08:03:56.012Z,23.99
2016-07-06T08:04:55.992Z,24.6
2016-07-06T08:06:11.672Z,23.18
2016-07-06T08:06:58.348Z,22.54
2016-07-06T08:07:59.279Z,23.02
2016-07-06T08:08:56.306Z,23.55
2016-07-06T08:09:57.328Z,23.87
2016-07-06T08:10:56.033Z,23.5
2016-07-06T08:11:56.002Z,22.63
2016-07-06T08:12:58.810Z,22.69
2016-07-06T08:13:56.327Z,23.2
2016-07-06T08:14:56.172Z,23.73
2016-07-06T08:15:57.724Z,24.57
2016-07-06T08:16:56.096Z,25.23
2016-07-06T08:17:56.055Z,25.83
2016-07-06T08:18:56.211Z,26.21
2016-07-06T08:19:56.357Z,25.84
2016-07-06T08:20:57.122Z,26.16
2016-07-06T08:22:01.233Z,26.28
2016-07-06T08:22:56.239Z,26.29
2016-07-06T08:23:56.040Z,26.23
2016-07-06T08:24:56.005Z,25.99
2016-07-06T08:25:59.728Z,26.1
2016-07-06T08:26:56.210Z,25.81
2016-07-06T08:27:56.097Z,25.68
2016-07-06T08:29:07.275Z,25.7
2016-07-06T08:29:56.035Z,25.99
2016-07-06T08:30:56.001Z,25.96
2016-07-06T08:31:56.073Z,25.58
2016-07-06T08:32:55.970Z,24.29
2016-07-06T08:33:55.975Z,23.23
2016-07-06T08:34:56.042Z,22.96
2016-07-06T08:35:56.008Z,23.28
2016-07-06T08:36:55.994Z,24.2
2016-07-06T08:37:56.592Z,24.55
2016-07-06T08:38:56.015Z,23.81
2016-07-06T08:39:56.220Z,23.5
2016-07-06T08:40:56.005Z,23.03
2016-07-06T08:41:56.028Z,22.93
2016-07-06T08:42:56.031Z,23.21
2016-07-06T08:43:56.070Z,23.65
2016-07-06T08:44:56.112Z,24.13
2016-07-06T08:45:57.972Z,25.04
2016-07-06T08:46:56.237Z,25.65
2016-07-06T08:47:56.126Z,25.35
2016-07-06T08:48:58.655Z,25.44
2016-07-06T08:49:56.124Z,25.36
2016-07-06T08:50:56.013Z,25.98
2016-07-06T08:51:56.194Z,26.59
2016-07-06T08:52:56.016Z,27
2016-07-06T08:53:57.000Z,26.9
2016-07-06T08:54:56.054Z,26.4
2016-07-06T08:55:56.020Z,26.47
2016-07-06T08:56:56.408Z,26.02
2016-07-06T08:57:56.193Z,24.73
2016-07-06T08:58:56.037Z,24.03
2016-07-06T08:59:56.690Z,23.68
2016-07-06T09:00:56.048Z,23.09
2016-07-06T09:01:56.029Z,22.5
2016-07-06T09:02:57.076Z,21.58
2016-07-06T09:03:56.394Z,22.06
2016-07-06T09:04:57.270Z,23.08
2016-07-06T09:05:56.045Z,23.81
2016-07-06T09:06:56.190Z,24.48
2016-07-06T09:07:56.455Z,25.06
2016-07-06T09:08:57.950Z,25.07
2016-07-06T09:09:56.153Z,24.21
2016-07-06T09:11:00.883Z,23.08
2016-07-06T09:11:56.143Z,22.83
2016-07-06T09:12:56.139Z,22.84
2016-07-06T09:13:56.088Z,22.59
2016-07-06T09:14:56.061Z,21.96
2016-07-06T09:15:56.064Z,22.38
2016-07-06T09:17:08.728Z,23.02
2016-07-06T09:17:56.057Z,23.62
2016-07-06T09:18:56.510Z,24.43
2016-07-06T09:19:56.051Z,24.98
2016-07-06T09:20:57.602Z,25.7
2016-07-06T09:21:56.035Z,26.03
2016-07-06T09:22:56.054Z,26.33
2016-07-06T09:24:00.356Z,25.93
2016-07-06T09:25:00.239Z,25.99
2016-07-06T09:25:56.235Z,25.63
2016-07-06T09:26:56.119Z,25.18
2016-07-06T09:27:56.401Z,25.18
2016-07-06T09:28:56.062Z,25.18
2016-07-06T09:29:56.035Z,25.31
2016-07-06T09:31:05.033Z,25.55
2016-07-06T09:31:56.474Z,25.72
2016-07-06T09:32:56.104Z,26.41
2016-07-06T09:33:57.567Z,26.18
2016-07-06T09:34:56.082Z,25.93
2016-07-06T09:35:56.035Z,26.41
2016-07-06T09:36:58.412Z,26.63
2016-07-06T09:38:12.901Z,27.11
2016-07-06T09:38:56.054Z,27.26
2016-07-06T09:40:01.981Z,27.33
2016-07-06T09:40:56.058Z,27.44
2016-07-06T09:41:56.054Z,26.66
2016-07-06T09:42:56.212Z,25.11
2016-07-06T09:43:56.073Z,24.68
2016-07-06T09:44:56.182Z,24.5
2016-07-06T09:45:56.423Z,24.77
2016-07-06T09:58:57.077Z,25.14
2016-07-06T09:59:52.300Z,20.72
2016-07-06T10:00:17.180Z,20.87
2016-07-06T10:01:14.341Z,20.7
2016-07-06T10:02:18.420Z,20.85
2016-07-06T10:03:14.242Z,21.64
2016-07-06T10:04:14.948Z,22.68
2016-07-06T10:05:14.299Z,23.65
2016-07-06T10:06:13.781Z,24.68
2016-07-06T10:07:13.702Z,24.7
2016-07-06T10:08:21.684Z,24.57
2016-07-06T10:09:13.721Z,23.74
2016-07-06T10:10:13.783Z,22.76
2016-07-06T10:11:14.562Z,21.91
2016-07-06T10:12:14.686Z,21.66
2016-07-06T10:13:20.451Z,21.54
2016-07-06T10:14:13.787Z,21.55
2016-07-06T10:15:14.053Z,21.2
2016-07-06T10:16:17.074Z,20.82
2016-07-06T10:17:16.218Z,20.4
2016-07-06T10:18:19.283Z,20.36
2016-07-06T10:19:14.309Z,20.24
2016-07-06T10:20:13.742Z,20.07
2016-07-06T10:21:15.788Z,19.99
2016-07-06T10:22:13.757Z,19.82
2016-07-06T10:23:13.715Z,19.52
2016-07-06T10:24:18.733Z,19.58
2016-07-06T10:25:13.737Z,19.52
2016-07-06T10:26:15.093Z,19.7
2016-07-06T10:27:13.741Z,19.76
2016-07-06T10:28:18.337Z,19.51
2016-07-06T10:29:17.290Z,19.52
2016-07-06T10:30:13.738Z,19.4
2016-07-06T10:31:13.725Z,20.24
2016-07-06T10:32:13.709Z,21.46
2016-07-06T10:33:14.859Z,21.95
2016-07-06T10:34:13.965Z,21.77
2016-07-06T10:35:13.727Z,21.36
2016-07-06T10:36:13.724Z,22.08
2016-07-06T10:37:13.766Z,22.8
2016-07-06T10:38:13.726Z,22.25
2016-07-06T10:39:20.801Z,21.85
2016-07-06T10:40:16.787Z,22.55
2016-07-06T10:41:24.295Z,23.56
2016-07-06T10:42:14.914Z,24.16
2016-07-06T10:43:13.730Z,24.7
2016-07-06T10:44:27.030Z,25.43
2016-07-06T10:45:14.015Z,25.55
2016-07-06T10:46:13.775Z,25.98
2016-07-06T10:47:13.891Z,26.21
2016-07-06T10:48:22.483Z,26.89
2016-07-06T10:49:14.432Z,26.89
2016-07-06T10:50:25.622Z,27.21
2016-07-06T10:51:15.380Z,26.48
2016-07-06T10:52:13.758Z,25.6
2016-07-06T10:53:13.910Z,24.95
2016-07-06T10:54:13.739Z,24.73
2016-07-06T10:55:15.314Z,24.05
2016-07-06T10:56:17.915Z,23.24
2016-07-06T10:57:14.424Z,22.75
2016-07-06T11:00:21.407Z,21.8
2016-07-06T11:00:49.030Z,21.75
2016-07-06T11:02:18.608Z,21.55
2016-07-06T11:02:43.562Z,21.32
2016-07-06T11:03:44.297Z,21.22
2016-07-06T11:04:43.362Z,21.18
2016-07-06T11:05:43.341Z,20.95
2016-07-06T11:06:47.631Z,20.97
2016-07-06T11:07:44.872Z,20.9
2016-07-06T11:08:43.362Z,20.81
2016-07-06T11:09:43.369Z,20.69
2016-07-06T11:10:43.343Z,21.33
2016-07-06T11:11:44.412Z,22.83
2016-07-06T11:12:43.323Z,24.16
2016-07-06T11:13:43.353Z,24.54
2016-07-06T11:14:43.351Z,24.57
2016-07-06T11:15:43.342Z,23.8
2016-07-06T11:16:46.621Z,22.99
2016-07-06T11:17:43.314Z,22.54
2016-07-06T11:18:43.348Z,22.38
2016-07-06T11:19:43.364Z,22.02
2016-07-06T11:20:43.345Z,21.73
2016-07-06T11:21:43.389Z,21.42
2016-07-06T11:22:43.316Z,21.09
2016-07-06T11:23:43.670Z,20.97
2016-07-06T11:24:43.381Z,20.87
2016-07-06T11:25:43.379Z,20.87
2016-07-06T11:26:47.319Z,20.52
2016-07-06T11:27:43.325Z,20.52
2016-07-06T11:28:43.442Z,20.52
2016-07-06T11:29:48.924Z,20.5
2016-07-06T11:30:43.322Z,21.3
2016-07-06T11:31:43.384Z,21.77
2016-07-06T11:32:43.282Z,21.77
2016-07-06T11:33:43.422Z,21.66
2016-07-06T11:34:44.818Z,21.43
2016-07-06T11:35:43.336Z,21.32
2016-07-06T11:36:43.361Z,21.67
2016-07-06T11:37:43.435Z,21.48
2016-07-06T11:38:43.347Z,22.02
2016-07-06T11:39:44.261Z,22.53
2016-07-06T11:40:43.306Z,22.38
2016-07-06T11:41:45.811Z,22.02
2016-07-06T11:42:46.014Z,21.87
2016-07-06T11:43:43.378Z,21.77
2016-07-06T11:44:43.865Z,22.66
2016-07-06T11:57:01.907Z,25.32
2016-07-06T11:58:07.906Z,25.69
2016-07-06T11:59:01.420Z,25.83
2016-07-06T12:00:01.530Z,26.16
2016-07-06T12:01:02.390Z,25.95
2016-07-06T12:02:01.440Z,26.41
2016-07-06T12:03:01.380Z,26.02
2016-07-06T12:04:01.274Z,26.23
2016-07-06T12:05:04.559Z,26.59
2016-07-06T12:06:01.278Z,26.68
2016-07-06T12:07:02.276Z,26.62
2016-07-06T12:08:01.320Z,26.22
2016-07-06T12:09:01.363Z,25.81
2016-07-06T12:10:12.596Z,25.5
2016-07-06T12:11:01.575Z,25.54
2016-07-06T12:12:01.314Z,25.62
2016-07-06T12:13:03.490Z,26.31
2016-07-06T12:14:01.602Z,26.75
2016-07-06T12:15:01.438Z,26.19
2016-07-06T12:16:01.612Z,25.87
2016-07-06T12:17:01.303Z,25.68
2016-07-06T12:18:01.368Z,26.03
2016-07-06T12:19:01.358Z,25.87
2016-07-06T12:20:01.297Z,25.78
2016-07-06T12:21:01.399Z,24.66
2016-07-06T12:22:01.315Z,24.28
2016-07-06T12:23:11.797Z,24.26
2016-07-06T12:24:13.704Z,23.83
2016-07-06T12:25:01.588Z,23.66
2016-07-06T12:26:11.672Z,23.48
2016-07-06T12:27:01.348Z,23.44
2016-07-06T12:28:01.362Z,23.41
2016-07-06T12:29:01.383Z,23.47
2016-07-06T12:30:02.257Z,23.37
2016-07-06T12:31:02.746Z,23.37
2016-07-06T12:32:02.489Z,23.05
2016-07-06T12:33:01.286Z,23.55
2016-07-06T12:34:12.427Z,23.84
2016-07-06T12:35:01.456Z,24.08
2016-07-06T12:36:09.500Z,24.7
2016-07-06T12:37:07.363Z,24.54
2016-07-06T12:38:02.242Z,24.63
2016-07-06T12:51:02.473Z,26.95
2016-07-06T12:51:53.600Z,27.1
2016-07-06T12:52:23.992Z,26.88
2016-07-06T12:53:23.001Z,26.31
2016-07-06T12:54:28.217Z,25.85
2016-07-06T12:55:26.214Z,26.18
2016-07-06T12:56:23.363Z,26.66
2016-07-06T12:57:22.992Z,27.18
2016-07-06T12:58:26.712Z,27.21
2016-07-06T12:59:26.770Z,26.75
2016-07-06T13:00:23.317Z,25.87
2016-07-06T13:12:44.429Z,21.61
2016-07-06T13:13:41.584Z,21.52
2016-07-06T13:14:40.682Z,21.95
2016-07-06T13:15:40.832Z,22.39
2016-07-06T13:16:40.635Z,23.21
2016-07-06T13:17:40.626Z,24.26
2016-07-06T13:18:41.206Z,25.25
2016-07-06T13:19:41.998Z,25.62
2016-07-06T13:20:40.765Z,26.18
2016-07-06T13:21:43.233Z,26.4
2016-07-06T13:22:40.714Z,26.52
2016-07-06T13:23:41.232Z,26.55
2016-07-06T13:24:40.754Z,26.6
2016-07-06T13:25:40.883Z,26.58
2016-07-06T13:26:41.919Z,26.58
2016-07-06T13:27:41.968Z,26.71
2016-07-06T13:28:41.245Z,26.7
2016-07-06T13:29:40.671Z,26.74
2016-07-06T13:30:42.703Z,26.48
2016-07-06T13:31:40.783Z,26.34
2016-07-06T13:32:40.761Z,26.43
2016-07-06T13:33:40.644Z,26.19
2016-07-06T13:34:40.746Z,26.26
2016-07-06T13:35:40.716Z,26.36
2016-07-06T13:36:40.848Z,26.44
2016-07-06T13:37:40.677Z,26.47
2016-07-06T13:38:41.232Z,26.63
2016-07-06T13:39:41.715Z,26.68
2016-07-06T13:40:42.466Z,26.45
2016-07-06T13:41:40.715Z,26.53
2016-07-06T13:42:40.687Z,26.8
2016-07-06T13:43:40.719Z,26.81
2016-07-06T13:44:40.699Z,26.75
2016-07-06T13:45:40.689Z,27.12
2016-07-06T13:46:43.438Z,26.78
2016-07-06T13:47:40.720Z,26.99
2016-07-06T13:48:40.745Z,26.53
2016-07-06T13:49:40.712Z,25.75
2016-07-06T13:50:44.829Z,25.21
2016-07-06T13:51:41.258Z,24.38
2016-07-06T13:52:40.695Z,23.8
2016-07-06T13:53:51.583Z,23.37
2016-07-06T13:54:40.734Z,23.15
2016-07-06T13:55:43.863Z,23.05
2016-07-06T13:56:40.857Z,23.21
2016-07-06T13:57:40.738Z,23.13
2016-07-06T13:58:40.707Z,23.39
2016-07-06T13:59:40.725Z,23.12
2016-07-06T14:01:06.144Z,22.9
2016-07-06T14:01:41.914Z,22.7
2016-07-06T14:02:51.629Z,22.59
2016-07-06T14:03:40.752Z,22.6
2016-07-06T14:04:40.805Z,22.68
2016-07-06T14:05:43.207Z,22.53
2016-07-06T14:06:56.106Z,22.22
2016-07-06T14:07:41.864Z,21.99
2016-07-06T14:08:44.287Z,21.69
2016-07-06T14:09:40.927Z,21.85
2016-07-06T14:10:42.352Z,21.76
2016-07-06T14:11:40.738Z,22.02
2016-07-06T14:12:41.635Z,22.17
2016-07-06T14:13:40.776Z,22.32
2016-07-06T14:14:40.720Z,22.76
2016-07-06T14:15:40.771Z,22.81
2016-07-06T14:16:40.727Z,23.05
2016-07-06T14:17:40.681Z,23.17
2016-07-06T14:18:40.787Z,23.03
2016-07-06T14:19:46.519Z,22.84
2016-07-06T14:20:43.920Z,22.41
2016-07-06T14:21:51.347Z,22.36
2016-07-06T14:22:40.685Z,22.33
2016-07-06T14:23:45.196Z,22.28
2016-07-06T14:24:40.751Z,22.26
2016-07-06T14:25:41.992Z,22.2
2016-07-06T14:26:41.058Z,22.06
2016-07-06T14:27:41.232Z,22.08
2016-07-06T14:28:41.330Z,22.07
2016-07-06T14:29:41.773Z,22.04
2016-07-06T14:30:40.836Z,21.96
2016-07-06T14:31:41.144Z,21.92